Time;durP1;ratioP1;P1;durP2;ratioP2;P2;SDS_P1;SDS_P2;PMS_P1;PMS_P2;Temp;Humidity;BMP_temperature;BMP_pressure;BME280_temperature;BME280_humidity;BME280_pressure;Samples;Min_cycle;Max_cycle;Signal;HPM_P1;HPM_P2
2022/11/22 00:00:43;;;;;;;26.83;12.40;;;1.20;99.90;;;;;;5079252;28;20297;-83
2022/11/22 00:03:10;;;;;;;26.70;12.60;;;1.20;99.90;;;;;;5077123;28;20289;-83
2022/11/22 00:05:38;;;;;;;27.67;13.87;;;1.10;99.90;;;;;;5093277;28;20281;-82
2022/11/22 00:08:05;;;;;;;28.87;15.43;;;1.10;99.90;;;;;;5092425;28;20228;-83
2022/11/22 00:10:33;;;;;;;31.00;16.50;;;1.10;99.90;;;;;;5097906;28;20261;-83
2022/11/22 00:12:59;;;;;;;30.57;13.77;;;1.10;99.90;;;;;;5097549;28;20560;-82
2022/11/22 00:15:26;;;;;;;28.33;14.17;;;1.10;99.90;;;;;;5097274;28;20207;-83
2022/11/22 00:17:53;;;;;;;28.93;14.77;;;1.10;99.90;;;;;;5097119;28;20720;-83
2022/11/22 00:20:20;;;;;;;33.97;16.20;;;1.10;99.90;;;;;;5096800;28;20591;-83
2022/11/22 00:22:48;;;;;;;31.60;14.97;;;1.10;99.90;;;;;;5098812;28;20528;-83
2022/11/22 00:25:15;;;;;;;32.20;14.83;;;1.10;99.90;;;;;;5097722;28;20205;-83
2022/11/22 00:27:42;;;;;;;32.20;14.60;;;1.10;99.90;;;;;;5096978;28;20233;-83
2022/11/22 00:30:10;;;;;;;32.60;15.10;;;1.20;99.90;;;;;;5098030;28;20289;-83
2022/11/22 00:32:37;;;;;;;32.87;17.50;;;1.20;99.90;;;;;;5098303;28;20227;-83
2022/11/22 00:35:04;;;;;;;32.43;14.23;;;1.20;99.90;;;;;;5099151;28;20214;-83
2022/11/22 00:37:31;;;;;;;32.23;15.57;;;1.20;99.90;;;;;;5095395;28;20222;-83
2022/11/22 00:39:59;;;;;;;31.53;16.83;;;1.20;99.90;;;;;;5093746;28;20210;-82
2022/11/22 00:42:26;;;;;;;35.17;15.47;;;1.20;99.90;;;;;;5099355;28;20265;-83
2022/11/22 00:44:53;;;;;;;34.53;15.03;;;1.20;99.90;;;;;;5098821;28;20662;-83
2022/11/22 00:47:19;;;;;;;32.23;16.87;;;1.30;99.90;;;;;;5096572;28;20230;-83
2022/11/22 00:49:46;;;;;;;35.17;15.13;;;1.30;99.90;;;;;;5077825;28;20746;-83
2022/11/22 00:52:13;;;;;;;33.63;13.67;;;1.30;99.90;;;;;;5077631;28;20883;-83
2022/11/22 00:54:40;;;;;;;27.87;13.03;;;1.30;99.90;;;;;;5080797;28;20205;-83
2022/11/22 00:57:08;;;;;;;38.47;15.47;;;1.40;99.90;;;;;;5090502;28;20233;-83
2022/11/22 00:59:35;;;;;;;34.70;17.87;;;1.40;99.90;;;;;;5101304;28;20289;-83
2022/11/22 01:02:02;;;;;;;33.60;17.73;;;1.40;99.90;;;;;;5101984;28;20202;-83
2022/11/22 01:04:28;;;;;;;36.10;15.73;;;1.40;99.90;;;;;;5102149;28;20194;-83
2022/11/22 01:06:55;;;;;;;38.43;16.53;;;1.40;99.90;;;;;;5092722;28;20285;-83
2022/11/22 01:09:23;;;;;;;38.63;15.63;;;1.50;99.90;;;;;;5100504;28;20232;-82
2022/11/22 01:11:51;;;;;;;35.73;15.57;;;1.50;99.90;;;;;;5083391;28;20636;-83
2022/11/22 01:14:19;;;;;;;36.07;16.10;;;1.50;99.90;;;;;;5081975;28;20570;-83
2022/11/22 01:16:47;;;;;;;36.63;15.90;;;1.50;99.90;;;;;;5081892;28;20230;-83
2022/11/22 01:19:14;;;;;;;35.87;15.23;;;1.50;99.90;;;;;;5081247;28;20232;-82
2022/11/22 01:21:41;;;;;;;37.50;15.00;;;1.50;99.90;;;;;;5080859;28;20210;-83
2022/11/22 01:24:08;;;;;;;39.43;17.37;;;1.50;99.90;;;;;;5080426;28;20661;-83
2022/11/22 01:26:35;;;;;;;34.97;15.87;;;1.50;99.90;;;;;;5082155;28;20313;-83
2022/11/22 01:29:03;;;;;;;36.03;15.50;;;1.50;99.90;;;;;;5092144;28;20698;-83
2022/11/22 01:31:31;;;;;;;46.63;17.27;;;1.60;99.90;;;;;;5102209;28;20206;-83
2022/11/22 01:33:58;;;;;;;43.30;17.87;;;1.50;99.90;;;;;;5102599;28;20653;-83
2022/11/22 01:36:25;;;;;;;48.73;18.67;;;1.50;99.90;;;;;;5101283;28;20213;-83
2022/11/22 01:38:52;;;;;;;43.37;17.80;;;1.50;99.90;;;;;;5101957;28;20293;-83
2022/11/22 01:41:19;;;;;;;44.70;18.33;;;1.50;99.90;;;;;;5101194;28;20206;-83
2022/11/22 01:43:46;;;;;;;46.23;18.27;;;1.50;99.90;;;;;;5102374;28;20220;-83
2022/11/22 01:46:21;;;;;;;46.77;19.07;;;1.50;99.90;;;;;;5099695;28;20712;-83
2022/11/22 01:48:55;;;;;;;43.97;18.23;;;1.50;99.90;;;;;;5100354;28;20284;-83
2022/11/22 01:51:28;;;;;;;42.50;17.37;;;1.40;99.90;;;;;;5098340;28;20194;-83
2022/11/22 01:53:58;;;;;;;47.90;18.17;;;1.40;99.90;;;;;;5099318;28;20267;-83
2022/11/22 01:56:27;;;;;;;40.93;17.07;;;1.50;99.90;;;;;;5080545;28;20205;-83
2022/11/22 01:58:58;;;;;;;47.73;20.30;;;1.40;99.90;;;;;;5078073;28;20226;-83
2022/11/22 02:01:24;;;;;;;48.67;22.23;;;1.40;99.90;;;;;;5081225;28;20312;-83
2022/11/22 02:03:55;;;;;;;47.90;19.30;;;1.40;99.90;;;;;;5080816;28;20681;-83
2022/11/22 02:06:25;;;;;;;48.30;21.20;;;1.40;99.90;;;;;;5083505;28;20213;-83
2022/11/22 02:08:57;;;;;;;46.37;18.63;;;1.40;99.90;;;;;;5083225;28;20232;-82
2022/11/22 02:11:26;;;;;;;51.00;20.90;;;1.50;99.90;;;;;;5080617;28;20210;-83
2022/11/22 02:13:54;;;;;;;51.50;23.37;;;1.50;99.90;;;;;;5080364;28;20206;-83
2022/11/22 02:16:21;;;;;;;45.67;22.07;;;1.50;99.90;;;;;;5079968;28;20208;-83
2022/11/22 02:18:48;;;;;;;44.57;21.30;;;1.50;99.90;;;;;;5081583;28;20694;-83
2022/11/22 02:21:16;;;;;;;41.80;15.90;;;1.50;99.90;;;;;;5082902;28;20202;-83
2022/11/22 02:23:55;;;;;;;42.77;17.57;;;1.50;99.90;;;;;;5101641;28;20197;-83
2022/11/22 02:26:25;;;;;;;51.13;18.67;;;1.50;99.90;;;;;;5099784;28;20218;-83
2022/11/22 02:28:53;;;;;;;45.37;18.60;;;1.50;99.90;;;;;;5099134;28;20224;-83
2022/11/22 02:31:39;;;;;;;45.77;22.73;;;1.50;99.90;;;;;;5085587;28;20207;-83
2022/11/22 02:34:05;;;;;;;43.03;18.97;;;1.50;99.90;;;;;;5081337;28;20214;-83
2022/11/22 02:36:37;;;;;;;47.43;20.23;;;1.50;99.90;;;;;;5080934;28;20654;-83
2022/11/22 02:39:05;;;;;;;47.80;21.40;;;1.50;99.90;;;;;;5080074;28;20222;-83
2022/11/22 02:41:33;;;;;;;44.73;18.27;;;1.50;99.90;;;;;;5081053;28;20300;-83
2022/11/22 02:44:00;;;;;;;46.73;19.50;;;1.50;99.90;;;;;;5081211;28;20270;-82
2022/11/22 02:46:27;;;;;;;45.07;20.43;;;1.50;99.90;;;;;;5081699;28;20595;-83
2022/11/22 02:48:54;;;;;;;41.80;17.10;;;1.50;99.90;;;;;;5080302;28;20289;-83
2022/11/22 02:51:20;;;;;;;47.90;19.87;;;1.50;99.90;;;;;;5080877;28;20206;-83
2022/11/22 02:53:49;;;;;;;44.07;20.37;;;1.50;99.90;;;;;;5080186;28;20214;-83
2022/11/22 02:56:17;;;;;;;44.63;22.33;;;1.50;99.90;;;;;;5079638;28;20777;-83
2022/11/22 02:58:45;;;;;;;46.50;23.60;;;1.50;99.90;;;;;;5077933;28;20224;-83
2022/11/22 03:01:12;;;;;;;44.63;23.50;;;1.60;99.90;;;;;;5078283;28;20220;-82
2022/11/22 03:03:39;;;;;;;41.97;17.80;;;1.60;99.90;;;;;;5079563;28;20266;-83
2022/11/22 03:06:06;;;;;;;43.63;21.83;;;1.50;99.90;;;;;;5079943;28;20210;-83
2022/11/22 03:08:33;;;;;;;44.67;20.13;;;1.50;99.90;;;;;;5098244;28;20663;-82
2022/11/22 03:11:00;;;;;;;45.13;22.17;;;1.50;99.90;;;;;;5093764;28;20198;-82
2022/11/22 03:13:26;;;;;;;38.57;18.93;;;1.50;99.90;;;;;;5098394;28;20293;-83
2022/11/22 03:15:54;;;;;;;39.67;17.90;;;1.60;99.90;;;;;;5096353;28;20293;-82
2022/11/22 03:18:22;;;;;;;45.70;20.30;;;1.60;99.90;;;;;;5079995;28;20224;-83
2022/11/22 03:20:49;;;;;;;40.97;17.50;;;1.50;99.90;;;;;;5080267;28;20293;-83
2022/11/22 03:23:16;;;;;;;47.00;20.57;;;1.60;99.90;;;;;;5079653;28;20232;-83
2022/11/22 03:25:43;;;;;;;41.47;19.83;;;1.50;99.90;;;;;;5081234;28;20212;-83
2022/11/22 03:28:10;;;;;;;41.57;19.33;;;1.50;99.90;;;;;;5080367;28;20234;-83
2022/11/22 03:30:40;;;;;;;47.03;22.13;;;1.50;99.90;;;;;;5078980;28;20202;-82
2022/11/22 03:33:08;;;;;;;48.20;20.93;;;1.50;99.90;;;;;;5086255;28;20196;-82
2022/11/22 03:35:35;;;;;;;48.00;20.60;;;1.50;99.90;;;;;;5101510;28;20203;-82
2022/11/22 03:38:02;;;;;;;45.23;24.10;;;1.50;99.90;;;;;;5098500;28;20222;-82
2022/11/22 03:40:29;;;;;;;47.23;23.93;;;1.50;99.90;;;;;;5100062;28;20197;-82
2022/11/22 03:43:00;;;;;;;46.77;22.93;;;1.50;99.90;;;;;;5099284;28;20205;-82
2022/11/22 03:45:27;;;;;;;45.60;19.67;;;1.50;99.90;;;;;;5101050;28;20543;-82
2022/11/22 03:47:57;;;;;;;44.57;20.23;;;1.50;99.90;;;;;;5100611;28;20701;-82
2022/11/22 03:50:25;;;;;;;52.83;22.90;;;1.50;99.90;;;;;;5100476;28;20626;-82
2022/11/22 03:52:52;;;;;;;46.00;23.53;;;1.50;99.90;;;;;;5100871;28;20723;-82
2022/11/22 03:55:19;;;;;;;41.53;22.43;;;1.60;99.90;;;;;;5099441;28;20207;-82
2022/11/22 03:57:46;;;;;;;39.23;17.80;;;1.60;99.90;;;;;;5099837;28;20308;-82
2022/11/22 04:00:14;;;;;;;37.90;17.30;;;1.70;99.90;;;;;;5100671;28;20208;-82
2022/11/22 04:02:40;;;;;;;42.50;18.97;;;1.70;99.90;;;;;;5099852;28;20198;-82
2022/11/22 04:05:08;;;;;;;36.00;16.83;;;1.80;99.90;;;;;;5101063;28;20202;-82
2022/11/22 04:07:36;;;;;;;42.50;19.40;;;1.90;99.90;;;;;;5100818;28;20249;-82
2022/11/22 04:10:04;;;;;;;35.40;19.63;;;1.90;99.90;;;;;;5100827;28;20665;-82
2022/11/22 04:12:31;;;;;;;36.17;17.33;;;1.90;99.90;;;;;;5099672;28;20201;-82
2022/11/22 04:15:05;;;;;;;34.80;18.67;;;2.00;99.90;;;;;;5100083;28;20209;-82
2022/11/22 04:17:43;;;;;;;37.23;19.30;;;2.00;99.90;;;;;;5098967;28;20213;-82
2022/11/22 04:22:59;;;;;;;34.50;18.73;;;2.10;99.90;;;;;;5100831;28;20250;-81
2022/11/22 04:25:26;;;;;;;36.87;16.40;;;2.10;99.90;;;;;;5101117;28;20209;-82
2022/11/22 04:27:53;;;;;;;36.03;17.43;;;2.10;99.90;;;;;;5099989;28;20225;-81
2022/11/22 04:30:20;;;;;;;31.50;15.33;;;2.10;99.90;;;;;;5100547;28;20567;-82
2022/11/22 04:32:46;;;;;;;32.20;15.93;;;2.10;99.90;;;;;;5099794;28;20261;-81
2022/11/22 04:35:14;;;;;;;33.77;16.07;;;2.00;99.90;;;;;;5106158;28;20615;-81
2022/11/22 04:37:41;;;;;;;36.13;16.90;;;2.00;99.90;;;;;;5104798;28;20243;-81
2022/11/22 04:40:11;;;;;;;33.57;16.23;;;2.00;99.90;;;;;;5104735;28;20640;-81
2022/11/22 04:45:22;;;;;;;33.07;16.77;;;2.00;99.90;;;;;;5105832;28;20197;-81
2022/11/22 04:48:01;;;;;;;39.13;18.43;;;2.00;99.90;;;;;;5105238;28;20232;-82
2022/11/22 04:53:14;;;;;;;36.07;17.03;;;2.10;99.90;;;;;;5105094;28;20222;-81
2022/11/22 04:55:44;;;;;;;35.20;15.53;;;2.10;99.90;;;;;;5104529;28;20206;-81
2022/11/22 04:58:12;;;;;;;34.43;14.53;;;2.00;99.90;;;;;;5104599;28;20220;-81
2022/11/22 05:00:39;;;;;;;30.97;14.20;;;2.00;99.90;;;;;;5104968;28;20205;-81
2022/11/22 05:03:06;;;;;;;35.77;16.37;;;2.00;99.90;;;;;;5104817;28;20229;-81
2022/11/22 05:05:35;;;;;;;30.70;15.83;;;2.00;99.90;;;;;;5104824;28;20575;-81
2022/11/22 05:08:02;;;;;;;30.87;15.27;;;2.10;99.90;;;;;;5104571;28;20261;-81
2022/11/22 05:10:55;;;;;;;32.17;15.33;;;2.10;99.90;;;;;;5104681;28;20212;-81
2022/11/22 05:13:17;;;;;;;33.90;17.60;;;2.10;99.90;;;;;;5104002;28;20204;-81
2022/11/22 05:15:44;;;;;;;33.83;18.47;;;2.10;99.90;;;;;;5104652;28;20201;-81
2022/11/22 05:18:11;;;;;;;36.17;17.90;;;2.00;99.90;;;;;;5099162;28;20225;-82
2022/11/22 05:20:38;;;;;;;36.47;16.40;;;2.10;99.90;;;;;;5104682;28;20284;-81
2022/11/22 05:25:49;;;;;;;34.43;18.17;;;2.00;99.90;;;;;;5097774;28;20263;-82
2022/11/22 05:28:17;;;;;;;32.80;18.30;;;2.00;99.90;;;;;;5102213;28;20433;-81
2022/11/22 05:30:44;;;;;;;34.20;15.03;;;2.00;99.90;;;;;;5101804;28;20210;-81
2022/11/22 05:33:11;;;;;;;33.33;17.13;;;2.00;99.90;;;;;;5102149;28;20224;-81
2022/11/22 05:35:38;;;;;;;34.60;16.53;;;2.10;99.90;;;;;;5103235;28;20304;-81
2022/11/22 05:38:05;;;;;;;36.90;17.30;;;2.10;99.90;;;;;;5096298;28;20224;-81
2022/11/22 05:40:32;;;;;;;36.53;17.33;;;2.10;99.90;;;;;;5103892;28;20285;-82
2022/11/22 05:42:58;;;;;;;30.50;15.93;;;2.10;99.90;;;;;;5094195;28;20285;-81
2022/11/22 05:45:27;;;;;;;35.37;16.27;;;2.10;99.90;;;;;;5103330;28;20206;-81
2022/11/22 05:47:53;;;;;;;33.53;15.67;;;2.20;99.90;;;;;;5097355;28;20226;-81
2022/11/22 05:50:20;;;;;;;32.43;15.13;;;2.20;99.90;;;;;;5103835;28;20210;-81
2022/11/22 05:52:47;;;;;;;32.93;15.30;;;2.20;99.90;;;;;;5099719;28;20198;-81
2022/11/22 05:55:14;;;;;;;31.37;15.10;;;2.30;99.90;;;;;;5103057;28;20229;-82
2022/11/22 05:57:41;;;;;;;32.33;15.43;;;2.40;99.90;;;;;;5085637;28;20502;-81
2022/11/22 06:00:09;;;;;;;29.93;15.13;;;2.30;99.90;;;;;;5082993;28;20206;-82
2022/11/22 06:02:37;;;;;;;26.80;14.37;;;2.30;99.90;;;;;;5085570;28;20279;-81
2022/11/22 06:05:04;;;;;;;29.07;14.30;;;2.30;99.90;;;;;;5103581;28;20293;-81
2022/11/22 06:07:31;;;;;;;31.67;15.10;;;2.30;99.90;;;;;;5097821;28;20258;-82
2022/11/22 06:09:58;;;;;;;31.47;15.13;;;2.40;99.90;;;;;;5096731;28;20210;-82
2022/11/22 06:12:24;;;;;;;27.83;13.57;;;2.40;99.90;;;;;;5091139;28;20225;-81
2022/11/22 06:14:51;;;;;;;25.30;12.53;;;2.50;99.90;;;;;;5091095;28;20620;-81
2022/11/22 06:17:18;;;;;;;28.63;14.40;;;2.60;99.90;;;;;;5088075;28;20198;-81
2022/11/22 06:19:46;;;;;;;25.47;13.57;;;2.60;99.90;;;;;;5103372;28;20204;-81
2022/11/22 06:22:13;;;;;;;25.70;13.10;;;2.60;99.90;;;;;;5099675;28;20202;-81
2022/11/22 06:24:41;;;;;;;26.70;12.50;;;2.70;99.90;;;;;;5101985;28;20208;-81
2022/11/22 06:27:08;;;;;;;25.50;11.80;;;2.80;99.90;;;;;;5061012;28;1098064;-82
2022/11/22 06:29:35;;;;;;;21.23;10.87;;;2.90;99.90;;;;;;5103956;28;20212;-81
2022/11/22 06:32:02;;;;;;;23.93;9.90;;;2.90;99.90;;;;;;5097196;28;20216;-81
2022/11/22 06:34:28;;;;;;;21.87;10.67;;;3.00;99.90;;;;;;5082908;28;20202;-81
2022/11/22 06:36:57;;;;;;;20.10;10.50;;;3.10;99.90;;;;;;5094954;28;20202;-82
2022/11/22 06:39:23;;;;;;;21.57;10.60;;;3.10;99.90;;;;;;5089176;28;20273;-82
2022/11/22 06:41:50;;;;;;;22.50;10.47;;;3.20;99.90;;;;;;5103144;28;20265;-82
2022/11/22 06:44:17;;;;;;;19.13;10.87;;;3.30;99.90;;;;;;5098773;28;20664;-82
2022/11/22 06:46:44;;;;;;;19.10;10.27;;;3.30;99.90;;;;;;5097365;28;20209;-81
2022/11/22 06:49:10;;;;;;;21.20;10.47;;;3.40;99.90;;;;;;5101817;28;20225;-81
2022/11/22 06:51:37;;;;;;;21.77;12.40;;;3.40;99.90;;;;;;5081309;28;20206;-81
2022/11/22 06:54:06;;;;;;;20.80;12.47;;;3.40;99.90;;;;;;5084756;28;20697;-81
2022/11/22 06:56:36;;;;;;;22.67;13.23;;;3.60;99.90;;;;;;5083082;28;20211;-79
2022/11/22 06:59:05;;;;;;;20.57;11.67;;;3.70;99.90;;;;;;5081892;28;20218;-79
2022/11/22 07:01:33;;;;;;;20.83;11.37;;;3.80;99.90;;;;;;5096063;28;20236;-79
2022/11/22 07:04:01;;;;;;;20.40;10.60;;;3.70;99.90;;;;;;5080445;28;20202;-80
2022/11/22 07:06:29;;;;;;;19.70;9.90;;;3.70;99.90;;;;;;5098950;28;20193;-79
2022/11/22 07:08:57;;;;;;;17.73;9.77;;;3.80;99.90;;;;;;5093988;28;20240;-79
2022/11/22 07:11:27;;;;;;;17.00;8.93;;;3.80;99.90;;;;;;5093640;28;20583;-79
2022/11/22 07:13:55;;;;;;;19.60;9.37;;;3.90;99.90;;;;;;5098341;28;20204;-79
2022/11/22 07:16:22;;;;;;;16.20;8.47;;;3.80;99.90;;;;;;5083168;28;20297;-79
2022/11/22 07:18:49;;;;;;;16.13;8.47;;;3.80;99.90;;;;;;5082495;28;20313;-79
2022/11/22 07:21:18;;;;;;;16.80;9.00;;;3.90;99.90;;;;;;5098907;28;20202;-79
2022/11/22 07:23:47;;;;;;;16.70;9.00;;;4.00;99.90;;;;;;5088823;28;20210;-79
2022/11/22 07:26:15;;;;;;;18.47;9.63;;;4.10;99.90;;;;;;5098940;28;20209;-79
2022/11/22 07:28:44;;;;;;;15.93;8.33;;;4.20;99.90;;;;;;5088894;28;20244;-78
2022/11/22 07:31:12;;;;;;;15.70;7.90;;;4.10;99.90;;;;;;5101110;28;20229;-82
2022/11/22 07:33:39;;;;;;;14.83;7.73;;;4.10;99.90;;;;;;5092473;28;20594;-81
2022/11/22 07:36:08;;;;;;;14.77;8.50;;;4.10;99.90;;;;;;5101845;28;20296;-81
2022/11/22 07:38:35;;;;;;;14.57;7.97;;;4.20;99.90;;;;;;5091172;28;20222;-81
2022/11/22 07:41:03;;;;;;;17.10;8.50;;;4.10;99.90;;;;;;5086950;28;20206;-81
2022/11/22 07:43:30;;;;;;;14.83;8.17;;;4.10;99.90;;;;;;5088956;28;20257;-82
2022/11/22 07:46:00;;;;;;;14.40;7.47;;;4.10;99.90;;;;;;5087697;28;20202;-81
2022/11/22 07:48:27;;;;;;;12.17;7.07;;;4.00;99.90;;;;;;5085716;28;20224;-79
2022/11/22 07:50:54;;;;;;;15.00;7.73;;;4.10;99.90;;;;;;5098304;28;20630;-79
2022/11/22 07:53:20;;;;;;;13.53;6.57;;;4.10;99.90;;;;;;5098286;28;20202;-79
2022/11/22 07:55:47;;;;;;;13.30;7.63;;;4.20;99.90;;;;;;5089777;28;20668;-79
2022/11/22 07:58:14;;;;;;;12.63;7.43;;;4.10;99.90;;;;;;5098678;28;20218;-79
2022/11/22 08:00:41;;;;;;;12.57;7.17;;;4.00;99.90;;;;;;5097197;28;20288;-80
2022/11/22 08:03:09;;;;;;;19.53;10.40;;;4.00;99.90;;;;;;5095981;28;20300;-79
2022/11/22 08:05:36;;;;;;;20.30;11.53;;;3.90;99.90;;;;;;5098117;28;20210;-78
2022/11/22 08:08:03;;;;;;;20.07;10.70;;;3.90;99.90;;;;;;5082294;28;20665;-79
2022/11/22 08:10:29;;;;;;;20.70;10.80;;;3.70;99.90;;;;;;5093979;28;20201;-79
2022/11/22 08:12:59;;;;;;;21.97;10.67;;;3.80;99.90;;;;;;5092226;28;20201;-79
2022/11/22 08:15:26;;;;;;;18.17;10.03;;;3.80;99.90;;;;;;5097371;28;20209;-79
2022/11/22 08:17:54;;;;;;;15.27;8.30;;;3.90;99.90;;;;;;5091145;28;20228;-79
2022/11/22 08:20:22;;;;;;;15.67;8.80;;;4.10;99.90;;;;;;5094040;28;20237;-79
2022/11/22 08:22:48;;;;;;;15.87;8.20;;;4.10;99.90;;;;;;5091738;28;20208;-79
2022/11/22 08:25:15;;;;;;;13.37;7.73;;;4.20;99.90;;;;;;5100063;28;20202;-80
2022/11/22 08:27:43;;;;;;;12.57;7.50;;;4.30;99.90;;;;;;5094048;28;20305;-80
2022/11/22 08:30:11;;;;;;;14.67;8.07;;;4.20;99.90;;;;;;5096256;28;20228;-79
2022/11/22 08:32:38;;;;;;;14.63;8.10;;;4.20;99.90;;;;;;5094939;28;20193;-80
2022/11/22 08:35:06;;;;;;;12.17;6.70;;;4.40;99.90;;;;;;5097142;28;20194;-80
2022/11/22 08:37:34;;;;;;;13.47;7.77;;;4.50;99.90;;;;;;5094637;28;20218;-79
2022/11/22 08:40:01;;;;;;;16.47;8.20;;;4.70;99.90;;;;;;5097130;28;20213;-79
2022/11/22 08:42:28;;;;;;;12.83;6.90;;;4.70;99.90;;;;;;5096249;28;20204;-79
2022/11/22 08:44:55;;;;;;;12.27;7.00;;;4.60;99.90;;;;;;5091881;28;20569;-79
2022/11/22 08:47:22;;;;;;;11.73;7.17;;;4.60;99.90;;;;;;5086299;28;20567;-79
2022/11/22 08:49:49;;;;;;;13.10;7.63;;;4.60;99.90;;;;;;5092470;28;20224;-79
2022/11/22 08:52:15;;;;;;;14.53;8.00;;;4.60;99.90;;;;;;5092494;28;20220;-79
2022/11/22 08:54:44;;;;;;;13.90;7.67;;;4.60;99.90;;;;;;5096354;28;20212;-80
2022/11/22 08:57:10;;;;;;;11.63;7.07;;;4.80;99.90;;;;;;5093958;28;20216;-79
2022/11/22 08:59:37;;;;;;;14.90;8.03;;;4.80;99.90;;;;;;5095057;28;20200;-80
2022/11/22 09:02:04;;;;;;;12.40;7.10;;;4.90;99.90;;;;;;5096126;28;20617;-79
2022/11/22 09:04:31;;;;;;;14.77;8.30;;;4.80;99.90;;;;;;5094791;28;20678;-80
2022/11/22 09:06:59;;;;;;;13.60;7.30;;;4.80;99.90;;;;;;5096419;28;20265;-80
2022/11/22 09:09:26;;;;;;;13.23;7.10;;;4.80;99.90;;;;;;5106142;28;20727;-80
2022/11/22 09:11:54;;;;;;;13.37;8.00;;;4.80;99.90;;;;;;5105049;28;20270;-80
2022/11/22 09:14:21;;;;;;;13.63;7.90;;;5.00;99.90;;;;;;5093149;28;20210;-83
2022/11/22 09:16:48;;;;;;;11.67;6.83;;;4.90;99.90;;;;;;5094148;28;20202;-82
2022/11/22 09:19:15;;;;;;;14.47;7.10;;;5.10;99.90;;;;;;5095412;28;20222;-81
2022/11/22 09:21:42;;;;;;;13.17;7.57;;;5.20;99.90;;;;;;5100878;28;20213;-81
2022/11/22 09:24:09;;;;;;;13.63;7.20;;;5.30;99.90;;;;;;5098191;28;20209;-81
2022/11/22 09:26:35;;;;;;;13.40;7.33;;;5.40;99.90;;;;;;5098173;28;20223;-81
2022/11/22 09:29:04;;;;;;;13.20;6.53;;;5.40;99.90;;;;;;5097283;28;20226;-82
2022/11/22 09:31:31;;;;;;;12.23;6.80;;;5.50;99.90;;;;;;5102083;28;20556;-82
2022/11/22 09:33:58;;;;;;;12.27;7.10;;;5.50;99.90;;;;;;5106413;28;20206;-82
2022/11/22 09:36:26;;;;;;;12.07;7.03;;;5.40;99.90;;;;;;5103604;28;20194;-83
2022/11/22 09:38:53;;;;;;;11.57;6.53;;;5.40;99.90;;;;;;5096755;28;20218;-83
2022/11/22 09:41:45;;;;;;;13.77;6.87;;;5.40;99.90;;;;;;5099733;28;20201;-81
2022/11/22 09:44:20;;;;;;;12.50;6.47;;;5.50;99.90;;;;;;5081281;28;20206;-82
2022/11/22 09:46:52;;;;;;;10.13;6.43;;;5.60;99.90;;;;;;5097508;28;20197;-82
2022/11/22 09:49:28;;;;;;;11.27;6.30;;;5.70;99.90;;;;;;5111364;28;20297;-83
2022/11/22 09:52:02;;;;;;;11.30;5.80;;;5.80;99.90;;;;;;5110855;28;20209;-81
2022/11/22 09:54:34;;;;;;;11.87;5.93;;;5.90;99.90;;;;;;5102402;28;20294;-81
2022/11/22 09:57:04;;;;;;;11.07;6.50;;;6.10;99.90;;;;;;5103910;28;20229;-81
2022/11/22 09:59:36;;;;;;;10.33;6.10;;;6.10;99.90;;;;;;5099735;28;20600;-81
2022/11/22 10:02:08;;;;;;;10.27;6.20;;;6.20;99.90;;;;;;5102039;28;20208;-81
2022/11/22 10:04:39;;;;;;;12.20;6.23;;;6.30;99.90;;;;;;5094149;28;20697;-81
2022/11/22 10:07:12;;;;;;;9.80;6.10;;;6.70;99.90;;;;;;5105014;28;20547;-81
2022/11/22 10:09:46;;;;;;;9.53;5.50;;;6.80;99.90;;;;;;5103961;28;20214;-81
2022/11/22 10:12:19;;;;;;;8.70;5.93;;;7.00;99.90;;;;;;5087185;28;20202;-80
2022/11/22 10:14:54;;;;;;;11.30;6.00;;;7.30;99.90;;;;;;5097395;28;20194;-80
2022/11/22 10:17:32;;;;;;;9.90;6.07;;;7.60;99.90;;;;;;5102216;28;20206;-81
2022/11/22 10:20:05;;;;;;;11.93;6.00;;;7.80;99.90;;;;;;5094551;28;20560;-81
2022/11/22 10:22:34;;;;;;;12.27;6.40;;;7.90;99.90;;;;;;5104533;28;20209;-80
2022/11/22 10:25:03;;;;;;;10.53;5.53;;;7.90;99.90;;;;;;5097229;28;20198;-81
2022/11/22 10:27:32;;;;;;;8.77;5.20;;;7.70;99.90;;;;;;5102867;28;20233;-80
2022/11/22 10:30:04;;;;;;;10.37;5.87;;;7.80;99.90;;;;;;5108448;28;20218;-82
2022/11/22 10:32:38;;;;;;;11.73;5.80;;;7.70;99.90;;;;;;5095175;28;20201;-81
2022/11/22 10:35:21;;;;;;;12.17;5.40;;;7.70;99.90;;;;;;5100055;28;20289;-81
2022/11/22 10:38:00;;;;;;;9.63;5.70;;;7.60;99.90;;;;;;5105844;28;20242;-81
2022/11/22 10:40:36;;;;;;;10.73;5.70;;;7.60;99.90;;;;;;5090523;28;20229;-80
2022/11/22 10:43:26;;;;;;;9.20;5.43;;;7.60;99.90;;;;;;5110113;28;20203;-80
2022/11/22 10:46:01;;;;;;;8.43;4.97;;;7.50;99.90;;;;;;5090593;28;20216;-80
2022/11/22 10:48:35;;;;;;;7.47;5.00;;;7.50;99.90;;;;;;5098649;28;20231;-82
2022/11/22 10:51:10;;;;;;;10.63;5.30;;;7.60;99.90;;;;;;5091169;28;20203;-82
2022/11/22 10:53:49;;;;;;;11.17;5.10;;;7.40;99.90;;;;;;5099486;28;20203;-80
2022/11/22 10:56:24;;;;;;;10.93;5.70;;;7.20;99.90;;;;;;5105393;28;20205;-80
2022/11/22 10:59:11;;;;;;;15.80;7.57;;;7.20;99.90;;;;;;5089968;28;20227;-80
2022/11/22 11:01:47;;;;;;;10.03;5.77;;;7.30;99.90;;;;;;5096801;28;20286;-80
2022/11/22 11:04:16;;;;;;;8.93;5.13;;;7.30;99.90;;;;;;5098578;28;20205;-80
2022/11/22 11:06:46;;;;;;;10.43;5.37;;;7.30;99.90;;;;;;5090317;28;20309;-81
2022/11/22 11:09:18;;;;;;;11.13;5.30;;;7.60;99.90;;;;;;5098878;28;20284;-81
2022/11/22 11:11:46;;;;;;;5.30;4.53;;;7.70;99.90;;;;;;5100393;28;20201;-82
2022/11/22 11:14:24;;;;;;;9.03;4.90;;;7.80;99.90;;;;;;5098983;28;20292;-80
2022/11/22 11:16:53;;;;;;;8.53;4.80;;;7.60;99.90;;;;;;5092666;28;20202;-80
2022/11/22 11:19:23;;;;;;;11.90;5.17;;;7.60;99.90;;;;;;5092095;28;20218;-81
2022/11/22 11:21:57;;;;;;;12.33;5.43;;;7.40;99.90;;;;;;5101721;28;20202;-82
2022/11/22 11:24:27;;;;;;;11.03;5.40;;;7.50;99.90;;;;;;5096846;28;20220;-82
2022/11/22 11:26:56;;;;;;;12.33;5.57;;;7.40;99.90;;;;;;5094876;28;20570;-82
2022/11/22 11:29:45;;;;;;;9.13;5.13;;;7.60;99.90;;;;;;5112185;28;20232;-81
2022/11/22 11:32:15;;;;;;;6.90;4.70;;;7.60;99.90;;;;;;5101408;28;20201;-82
2022/11/22 11:34:48;;;;;;;10.33;5.90;;;7.50;99.90;;;;;;5092357;28;20205;-81
2022/11/22 11:37:25;;;;;;;8.80;4.90;;;7.40;99.90;;;;;;5100419;28;20215;-82
2022/11/22 11:39:52;;;;;;;10.73;4.93;;;7.60;99.90;;;;;;5096761;28;20197;-82
2022/11/22 11:42:25;;;;;;;13.23;5.63;;;7.70;99.90;;;;;;5098748;28;20281;-81
2022/11/22 11:44:52;;;;;;;7.97;5.10;;;7.90;99.90;;;;;;5091531;28;20243;-81
2022/11/22 11:47:32;;;;;;;11.13;4.87;;;8.00;99.90;;;;;;5103149;28;20329;-81
2022/11/22 11:49:59;;;;;;;7.97;4.70;;;8.20;99.90;;;;;;5103339;28;20370;-81
2022/11/22 11:52:27;;;;;;;8.67;4.53;;;8.00;99.90;;;;;;5103763;28;20201;-81
2022/11/22 11:54:57;;;;;;;8.17;5.03;;;7.90;99.90;;;;;;5100608;28;20227;-82
2022/11/22 11:57:28;;;;;;;9.63;4.83;;;7.80;99.90;;;;;;5105666;28;20206;-82
2022/11/22 11:59:58;;;;;;;9.20;4.73;;;7.80;99.90;;;;;;5093110;28;20208;-81
2022/11/22 12:02:35;;;;;;;8.90;4.80;;;7.80;99.90;;;;;;5104268;28;20202;-81
2022/11/22 12:05:04;;;;;;;12.73;4.87;;;8.00;99.90;;;;;;5090006;28;20205;-81
2022/11/22 12:07:40;;;;;;;7.23;3.80;;;7.90;99.90;;;;;;5090969;28;20226;-82
2022/11/22 12:10:29;;;;;;;10.37;4.50;;;7.90;99.90;;;;;;5095860;28;20223;-82
2022/11/22 12:13:01;;;;;;;8.50;4.60;;;7.90;99.90;;;;;;5102491;28;20285;-81
2022/11/22 12:15:39;;;;;;;8.80;3.50;;;8.00;99.90;;;;;;5095381;28;20205;-81
2022/11/22 12:18:17;;;;;;;6.73;3.67;;;8.10;99.90;;;;;;5090062;28;20312;-81
2022/11/22 12:20:52;;;;;;;9.13;3.83;;;8.10;99.90;;;;;;5093101;28;20196;-81
2022/11/22 12:23:24;;;;;;;9.13;3.20;;;8.40;99.90;;;;;;5104868;28;20203;-81
2022/11/22 12:25:55;;;;;;;4.53;2.93;;;8.60;99.90;;;;;;5092835;28;20201;-80
2022/11/22 12:28:23;;;;;;;9.10;2.83;;;8.90;99.90;;;;;;5087211;28;20328;-81
2022/11/22 12:30:55;;;;;;;5.37;2.80;;;9.50;99.90;;;;;;5094813;28;20658;-80
2022/11/22 12:33:29;;;;;;;7.40;3.03;;;9.60;99.90;;;;;;5101810;28;20664;-81
2022/11/22 12:35:57;;;;;;;7.77;3.00;;;9.60;99.90;;;;;;5104797;28;20211;-83
2022/11/22 12:38:30;;;;;;;5.23;2.90;;;9.80;99.90;;;;;;5108352;28;20290;-81
2022/11/22 12:41:01;;;;;;;8.10;2.67;;;9.60;99.90;;;;;;5100938;28;20215;-81
2022/11/22 12:43:33;;;;;;;8.33;2.97;;;9.20;99.90;;;;;;5094123;28;20204;-81
2022/11/22 12:46:05;;;;;;;5.93;2.87;;;8.80;99.90;;;;;;5100844;28;20202;-80
2022/11/22 12:48:40;;;;;;;9.47;2.90;;;8.70;99.90;;;;;;5099123;28;20689;-81
2022/11/22 12:51:13;;;;;;;8.70;3.13;;;8.60;99.90;;;;;;5099814;28;20622;-81
2022/11/22 12:53:43;;;;;;;7.50;2.90;;;8.50;99.90;;;;;;5089953;28;20206;-80
2022/11/22 12:56:18;;;;;;;8.23;2.80;;;8.50;99.90;;;;;;5102016;28;20204;-81
2022/11/22 12:58:55;;;;;;;9.07;3.00;;;8.50;99.90;;;;;;5099903;28;20300;-81
2022/11/22 13:01:27;;;;;;;8.10;2.57;;;8.50;99.90;;;;;;5111996;28;20209;-81
2022/11/22 13:03:59;;;;;;;6.43;2.80;;;8.60;99.90;;;;;;5096840;28;20204;-81